sensor_id;sensor_type;location;lat;lon;timestamp;P1;P2;P0
80555;PMS5003;69889;55.040;73.076;2023-08-01T00:01:00;12.25;11.25;7.50
80555;PMS5003;69889;55.040;73.076;2023-08-01T00:03:27;15.00;13.00;8.00
80555;PMS5003;69889;55.040;73.076;2023-08-01T00:05:53;14.00;13.00;9.00
80555;PMS5003;69889;55.040;73.076;2023-08-01T00:08:21;12.75;12.00;8.00
80555;PMS5003;69889;55.040;73.076;2023-08-01T00:10:48;13.00;11.00;7.75
80555;PMS5003;69889;55.040;73.076;2023-08-01T00:13:14;15.00;12.00;8.00
80555;PMS5003;69889;55.040;73.076;2023-08-01T00:15:41;14.75;13.00;8.00
80555;PMS5003;69889;55.040;73.076;2023-08-01T00:18:07;16.00;13.25;8.00
80555;PMS5003;69889;55.040;73.076;2023-08-01T00:20:34;12.75;11.00;7.25
80555;PMS5003;69889;55.040;73.076;2023-08-01T00:23:01;13.00;11.25;8.00
80555;PMS5003;69889;55.040;73.076;2023-08-01T00:25:27;12.25;10.75;7.50
80555;PMS5003;69889;55.040;73.076;2023-08-01T00:27:56;13.00;11.00;8.00
80555;PMS5003;69889;55.040;73.076;2023-08-01T00:30:22;14.00;12.00;7.25
80555;PMS5003;69889;55.040;73.076;2023-08-01T00:32:51;12.25;11.00;7.00
80555;PMS5003;69889;55.040;73.076;2023-08-01T00:35:17;13.00;12.00;7.00
80555;PMS5003;69889;55.040;73.076;2023-08-01T00:37:44;14.00;12.25;9.00
80555;PMS5003;69889;55.040;73.076;2023-08-01T00:40:11;14.00;13.00;8.00
80555;PMS5003;69889;55.040;73.076;2023-08-01T00:42:39;14.00;13.00;8.00
80555;PMS5003;69889;55.040;73.076;2023-08-01T00:45:06;14.00;13.00;8.00
80555;PMS5003;69889;55.040;73.076;2023-08-01T00:47:32;15.75;13.00;8.25
80555;PMS5003;69889;55.040;73.076;2023-08-01T00:49:59;13.75;13.00;9.00
80555;PMS5003;69889;55.040;73.076;2023-08-01T00:52:26;14.00;13.00;9.00
80555;PMS5003;69889;55.040;73.076;2023-08-01T00:54:53;16.00;15.00;9.00
80555;PMS5003;69889;55.040;73.076;2023-08-01T00:57:22;14.00;12.00;9.00
80555;PMS5003;69889;55.040;73.076;2023-08-01T00:59:48;15.00;13.00;8.75
80555;PMS5003;69889;55.040;73.076;2023-08-01T01:02:15;15.00;14.00;8.00
80555;PMS5003;69889;55.040;73.076;2023-08-01T01:04:41;14.25;13.00;8.00
80555;PMS5003;69889;55.040;73.076;2023-08-01T01:07:08;14.00;12.00;8.00
80555;PMS5003;69889;55.040;73.076;2023-08-01T01:09:35;15.00;13.00;8.00
80555;PMS5003;69889;55.040;73.076;2023-08-01T01:12:01;13.25;12.00;8.00
80555;PMS5003;69889;55.040;73.076;2023-08-01T01:14:28;13.00;12.00;7.25
80555;PMS5003;69889;55.040;73.076;2023-08-01T01:16:55;13.00;11.00;7.00
80555;PMS5003;69889;55.040;73.076;2023-08-01T01:19:22;14.25;13.50;9.00
80555;PMS5003;69889;55.040;73.076;2023-08-01T01:21:49;10.75;10.50;7.00
80555;PMS5003;69889;55.040;73.076;2023-08-01T01:24:16;12.00;12.00;8.00
80555;PMS5003;69889;55.040;73.076;2023-08-01T01:26:44;12.00;10.25;7.00
80555;PMS5003;69889;55.040;73.076;2023-08-01T01:29:11;11.50;10.50;6.00
80555;PMS5003;69889;55.040;73.076;2023-08-01T01:31:38;13.00;11.00;7.00
80555;PMS5003;69889;55.040;73.076;2023-08-01T01:34:05;11.00;10.00;7.00
80555;PMS5003;69889;55.040;73.076;2023-08-01T01:36:31;12.25;11.00;8.00
80555;PMS5003;69889;55.040;73.076;2023-08-01T01:38:58;14.25;13.00;7.00
80555;PMS5003;69889;55.040;73.076;2023-08-01T01:41:25;14.00;13.00;9.00
80555;PMS5003;69889;55.040;73.076;2023-08-01T01:43:52;15.00;14.00;9.00
80555;PMS5003;69889;55.040;73.076;2023-08-01T01:46:19;16.00;14.00;9.00
80555;PMS5003;69889;55.040;73.076;2023-08-01T01:48:45;15.25;13.00;8.75
80555;PMS5003;69889;55.040;73.076;2023-08-01T01:51:13;20.00;18.00;10.25
80555;PMS5003;69889;55.040;73.076;2023-08-01T01:53:39;16.00;15.00;10.00
80555;PMS5003;69889;55.040;73.076;2023-08-01T01:56:06;17.00;16.00;10.00
80555;PMS5003;69889;55.040;73.076;2023-08-01T01:58:32;17.00;14.50;10.00
80555;PMS5003;69889;55.040;73.076;2023-08-01T02:00:59;17.00;14.00;9.25
80555;PMS5003;69889;55.040;73.076;2023-08-01T02:03:25;16.75;15.00;9.50
80555;PMS5003;69889;55.040;73.076;2023-08-01T02:05:53;19.00;16.00;10.00
80555;PMS5003;69889;55.040;73.076;2023-08-01T02:08:19;18.00;16.00;11.00
80555;PMS5003;69889;55.040;73.076;2023-08-01T02:10:47;16.00;15.00;10.00
80555;PMS5003;69889;55.040;73.076;2023-08-01T02:13:13;18.75;16.00;10.00
80555;PMS5003;69889;55.040;73.076;2023-08-01T02:15:40;19.00;16.00;10.00
80555;PMS5003;69889;55.040;73.076;2023-08-01T02:18:07;20.50;18.00;10.25
80555;PMS5003;69889;55.040;73.076;2023-08-01T02:20:34;18.00;16.00;11.00
80555;PMS5003;69889;55.040;73.076;2023-08-01T02:23:00;18.00;16.00;10.00
80555;PMS5003;69889;55.040;73.076;2023-08-01T02:25:27;18.00;16.00;11.00
80555;PMS5003;69889;55.040;73.076;2023-08-01T02:27:53;18.50;17.00;10.50
80555;PMS5003;69889;55.040;73.076;2023-08-01T02:30:20;21.00;18.00;11.00
80555;PMS5003;69889;55.040;73.076;2023-08-01T02:32:46;21.00;19.00;12.00
80555;PMS5003;69889;55.040;73.076;2023-08-01T02:35:13;20.00;18.00;11.25
80555;PMS5003;69889;55.040;73.076;2023-08-01T02:37:40;22.00;17.25;11.00
80555;PMS5003;69889;55.040;73.076;2023-08-01T02:40:07;20.25;18.00;11.00
80555;PMS5003;69889;55.040;73.076;2023-08-01T02:42:35;19.75;18.00;12.00
80555;PMS5003;69889;55.040;73.076;2023-08-01T02:45:02;20.00;18.00;12.00
80555;PMS5003;69889;55.040;73.076;2023-08-01T02:47:29;23.25;20.25;12.00
80555;PMS5003;69889;55.040;73.076;2023-08-01T02:49:57;23.00;19.00;12.00
80555;PMS5003;69889;55.040;73.076;2023-08-01T02:52:24;20.00;18.00;12.00
80555;PMS5003;69889;55.040;73.076;2023-08-01T02:54:50;21.00;18.00;11.25
80555;PMS5003;69889;55.040;73.076;2023-08-01T02:57:17;21.00;19.00;12.00
80555;PMS5003;69889;55.040;73.076;2023-08-01T02:59:44;21.00;18.00;12.00
80555;PMS5003;69889;55.040;73.076;2023-08-01T03:02:10;22.50;19.75;11.00
80555;PMS5003;69889;55.040;73.076;2023-08-01T03:04:37;24.00;21.00;14.00
80555;PMS5003;69889;55.040;73.076;2023-08-01T03:07:03;21.50;19.00;11.00
80555;PMS5003;69889;55.040;73.076;2023-08-01T03:09:31;19.75;17.50;11.50
80555;PMS5003;69889;55.040;73.076;2023-08-01T03:11:58;25.00;21.00;13.00
80555;PMS5003;69889;55.040;73.076;2023-08-01T03:14:25;22.00;20.00;13.00
80555;PMS5003;69889;55.040;73.076;2023-08-01T03:16:51;19.75;18.75;12.00
80555;PMS5003;69889;55.040;73.076;2023-08-01T03:19:18;21.00;18.00;13.00
80555;PMS5003;69889;55.040;73.076;2023-08-01T03:21:44;23.75;21.00;12.75
80555;PMS5003;69889;55.040;73.076;2023-08-01T03:24:11;23.00;20.00;13.00
80555;PMS5003;69889;55.040;73.076;2023-08-01T03:26:38;24.50;21.00;12.25
80555;PMS5003;69889;55.040;73.076;2023-08-01T03:29:04;23.25;19.75;12.50
80555;PMS5003;69889;55.040;73.076;2023-08-01T03:31:32;25.00;20.00;12.00
80555;PMS5003;69889;55.040;73.076;2023-08-01T03:33:59;21.00;18.00;11.00
80555;PMS5003;69889;55.040;73.076;2023-08-01T03:36:25;25.00;21.00;14.00
80555;PMS5003;69889;55.040;73.076;2023-08-01T03:38:52;21.50;18.50;11.50
80555;PMS5003;69889;55.040;73.076;2023-08-01T03:41:19;20.75;18.25;11.00
80555;PMS5003;69889;55.040;73.076;2023-08-01T03:43:45;19.75;17.50;10.50
80555;PMS5003;69889;55.040;73.076;2023-08-01T03:46:12;15.50;14.25;9.50
80555;PMS5003;69889;55.040;73.076;2023-08-01T03:48:38;17.00;15.00;10.00
80555;PMS5003;69889;55.040;73.076;2023-08-01T03:51:05;18.25;16.00;10.00
80555;PMS5003;69889;55.040;73.076;2023-08-01T03:53:32;16.00;14.00;9.00
80555;PMS5003;69889;55.040;73.076;2023-08-01T03:55:58;17.75;15.50;10.00
80555;PMS5003;69889;55.040;73.076;2023-08-01T03:58:25;15.00;13.00;9.00
80555;PMS5003;69889;55.040;73.076;2023-08-01T04:00:51;15.00;13.00;8.75
80555;PMS5003;69889;55.040;73.076;2023-08-01T04:03:18;15.00;13.00;8.00
80555;PMS5003;69889;55.040;73.076;2023-08-01T04:05:44;15.00;13.00;9.00
80555;PMS5003;69889;55.040;73.076;2023-08-01T04:08:11;16.00;14.00;9.00
80555;PMS5003;69889;55.040;73.076;2023-08-01T04:10:37;15.00;13.50;8.25
80555;PMS5003;69889;55.040;73.076;2023-08-01T04:13:04;16.00;14.00;8.00
80555;PMS5003;69889;55.040;73.076;2023-08-01T04:15:30;13.50;12.00;8.00
80555;PMS5003;69889;55.040;73.076;2023-08-01T04:17:57;13.25;12.00;8.00
80555;PMS5003;69889;55.040;73.076;2023-08-01T04:20:23;13.25;12.75;8.25
80555;PMS5003;69889;55.040;73.076;2023-08-01T04:22:50;13.00;12.00;8.00
80555;PMS5003;69889;55.040;73.076;2023-08-01T04:25:16;13.75;12.75;8.25
80555;PMS5003;69889;55.040;73.076;2023-08-01T04:27:43;13.00;11.00;8.00
80555;PMS5003;69889;55.040;73.076;2023-08-01T04:30:09;13.75;12.00;8.00
80555;PMS5003;69889;55.040;73.076;2023-08-01T04:32:36;13.75;12.25;8.00
80555;PMS5003;69889;55.040;73.076;2023-08-01T04:35:03;14.00;13.00;8.25
80555;PMS5003;69889;55.040;73.076;2023-08-01T04:37:32;13.00;11.00;7.00
80555;PMS5003;69889;55.040;73.076;2023-08-01T04:39:59;12.00;11.75;8.00
80555;PMS5003;69889;55.040;73.076;2023-08-01T04:42:25;13.00;11.25;7.00
80555;PMS5003;69889;55.040;73.076;2023-08-01T04:44:52;14.00;13.00;8.00
80555;PMS5003;69889;55.040;73.076;2023-08-01T04:47:18;13.00;11.75;8.00
80555;PMS5003;69889;55.040;73.076;2023-08-01T04:49:46;13.00;12.00;8.00
80555;PMS5003;69889;55.040;73.076;2023-08-01T04:52:13;12.75;11.50;8.00
80555;PMS5003;69889;55.040;73.076;2023-08-01T04:54:39;13.25;12.00;8.00
80555;PMS5003;69889;55.040;73.076;2023-08-01T04:57:06;11.50;10.75;7.25
80555;PMS5003;69889;55.040;73.076;2023-08-01T04:59:32;13.75;12.00;7.75
80555;PMS5003;69889;55.040;73.076;2023-08-01T05:01:59;15.00;13.00;8.00
80555;PMS5003;69889;55.040;73.076;2023-08-01T05:04:25;12.00;11.00;7.00
80555;PMS5003;69889;55.040;73.076;2023-08-01T05:06:52;13.00;11.00;8.00
80555;PMS5003;69889;55.040;73.076;2023-08-01T05:09:18;13.00;11.00;7.50
80555;PMS5003;69889;55.040;73.076;2023-08-01T05:11:46;11.75;10.00;7.00
80555;PMS5003;69889;55.040;73.076;2023-08-01T05:14:13;10.00;9.75;7.00
80555;PMS5003;69889;55.040;73.076;2023-08-01T05:16:39;11.75;10.75;7.00
80555;PMS5003;69889;55.040;73.076;2023-08-01T05:19:06;11.75;10.75;7.25
80555;PMS5003;69889;55.040;73.076;2023-08-01T05:21:32;13.25;12.00;7.00
80555;PMS5003;69889;55.040;73.076;2023-08-01T05:23:59;11.25;11.00;7.00
80555;PMS5003;69889;55.040;73.076;2023-08-01T05:26:25;13.00;12.00;7.00
80555;PMS5003;69889;55.040;73.076;2023-08-01T05:28:52;12.50;11.00;7.00
80555;PMS5003;69889;55.040;73.076;2023-08-01T05:31:18;12.00;11.00;7.00
80555;PMS5003;69889;55.040;73.076;2023-08-01T05:33:45;13.00;12.00;8.00
80555;PMS5003;69889;55.040;73.076;2023-08-01T05:36:11;12.25;12.00;8.00
80555;PMS5003;69889;55.040;73.076;2023-08-01T05:38:38;13.50;12.75;8.00
80555;PMS5003;69889;55.040;73.076;2023-08-01T05:41:04;12.00;11.00;7.00
80555;PMS5003;69889;55.040;73.076;2023-08-01T05:43:31;13.00;12.00;8.00
80555;PMS5003;69889;55.040;73.076;2023-08-01T05:45:58;13.00;12.00;7.00
80555;PMS5003;69889;55.040;73.076;2023-08-01T05:48:24;13.00;12.00;8.00
80555;PMS5003;69889;55.040;73.076;2023-08-01T05:50:51;14.00;12.00;8.00
80555;PMS5003;69889;55.040;73.076;2023-08-01T05:53:19;11.00;11.00;8.00
80555;PMS5003;69889;55.040;73.076;2023-08-01T05:55:45;13.00;11.00;7.00
80555;PMS5003;69889;55.040;73.076;2023-08-01T05:58:13;14.00;12.00;8.00
80555;PMS5003;69889;55.040;73.076;2023-08-01T06:00:39;13.75;12.75;9.00
80555;PMS5003;69889;55.040;73.076;2023-08-01T06:03:06;11.75;10.75;7.00
80555;PMS5003;69889;55.040;73.076;2023-08-01T06:05:32;12.75;11.50;7.00
80555;PMS5003;69889;55.040;73.076;2023-08-01T06:07:59;12.00;11.00;7.00
80555;PMS5003;69889;55.040;73.076;2023-08-01T06:10:27;13.00;12.00;9.00
80555;PMS5003;69889;55.040;73.076;2023-08-01T06:12:53;11.00;10.50;6.75
80555;PMS5003;69889;55.040;73.076;2023-08-01T06:15:26;11.00;10.50;7.00
80555;PMS5003;69889;55.040;73.076;2023-08-01T06:17:53;10.00;9.00;6.00
80555;PMS5003;69889;55.040;73.076;2023-08-01T06:20:19;11.00;10.00;6.00
80555;PMS5003;69889;55.040;73.076;2023-08-01T06:22:46;12.50;12.00;7.75
80555;PMS5003;69889;55.040;73.076;2023-08-01T06:25:14;13.00;12.00;8.00
80555;PMS5003;69889;55.040;73.076;2023-08-01T06:27:40;13.00;12.00;8.00
80555;PMS5003;69889;55.040;73.076;2023-08-01T06:30:07;13.00;11.50;7.00
80555;PMS5003;69889;55.040;73.076;2023-08-01T06:32:34;12.50;11.50;8.00
80555;PMS5003;69889;55.040;73.076;2023-08-01T06:35:00;13.00;12.00;8.00
80555;PMS5003;69889;55.040;73.076;2023-08-01T06:37:27;13.00;12.50;8.00
80555;PMS5003;69889;55.040;73.076;2023-08-01T06:39:54;13.00;12.00;8.00
80555;PMS5003;69889;55.040;73.076;2023-08-01T06:42:21;15.00;13.00;8.00
80555;PMS5003;69889;55.040;73.076;2023-08-01T06:44:48;12.25;11.75;7.75
80555;PMS5003;69889;55.040;73.076;2023-08-01T06:47:15;13.00;12.00;7.00
80555;PMS5003;69889;55.040;73.076;2023-08-01T06:49:41;12.25;11.00;7.00
80555;PMS5003;69889;55.040;73.076;2023-08-01T06:52:08;12.00;11.00;8.00
80555;PMS5003;69889;55.040;73.076;2023-08-01T06:54:34;13.00;12.00;8.00
80555;PMS5003;69889;55.040;73.076;2023-08-01T06:57:01;13.00;11.00;7.00
80555;PMS5003;69889;55.040;73.076;2023-08-01T06:59:28;12.00;11.00;7.00
80555;PMS5003;69889;55.040;73.076;2023-08-01T07:01:55;13.00;12.00;7.75
80555;PMS5003;69889;55.040;73.076;2023-08-01T07:04:21;12.00;11.00;8.00
80555;PMS5003;69889;55.040;73.076;2023-08-01T07:06:48;11.00;10.00;7.00
80555;PMS5003;69889;55.040;73.076;2023-08-01T07:09:14;10.00;9.50;7.00
80555;PMS5003;69889;55.040;73.076;2023-08-01T07:11:41;12.00;11.00;7.00
80555;PMS5003;69889;55.040;73.076;2023-08-01T07:14:07;13.00;12.00;7.00
80555;PMS5003;69889;55.040;73.076;2023-08-01T07:16:37;14.00;12.00;8.00
80555;PMS5003;69889;55.040;73.076;2023-08-01T07:19:04;12.00;11.00;7.00
80555;PMS5003;69889;55.040;73.076;2023-08-01T07:21:31;12.00;11.00;7.00
80555;PMS5003;69889;55.040;73.076;2023-08-01T07:23:57;10.25;10.25;7.00
80555;PMS5003;69889;55.040;73.076;2023-08-01T07:26:28;12.25;11.50;8.00
80555;PMS5003;69889;55.040;73.076;2023-08-01T07:28:55;11.25;10.75;7.00
80555;PMS5003;69889;55.040;73.076;2023-08-01T07:31:41;14.00;13.00;8.00
80555;PMS5003;69889;55.040;73.076;2023-08-01T07:34:28;11.00;10.00;7.00
80555;PMS5003;69889;55.040;73.076;2023-08-01T07:37:14;11.00;10.00;7.00
80555;PMS5003;69889;55.040;73.076;2023-08-01T07:40:00;10.00;9.00;7.00
80555;PMS5003;69889;55.040;73.076;2023-08-01T07:42:50;9.00;9.00;6.00
80555;PMS5003;69889;55.040;73.076;2023-08-01T07:45:45;10.50;9.75;6.00
80555;PMS5003;69889;55.040;73.076;2023-08-01T07:48:28;12.00;11.00;7.00
80555;PMS5003;69889;55.040;73.076;2023-08-01T07:51:07;12.00;10.75;7.00
80555;PMS5003;69889;55.040;73.076;2023-08-01T07:53:34;13.00;12.00;7.75
80555;PMS5003;69889;55.040;73.076;2023-08-01T07:56:00;11.00;10.25;7.00
80555;PMS5003;69889;55.040;73.076;2023-08-01T07:58:28;10.50;10.00;6.50
80555;PMS5003;69889;55.040;73.076;2023-08-01T08:00:55;12.75;11.00;7.00
80555;PMS5003;69889;55.040;73.076;2023-08-01T08:03:21;10.25;9.50;7.00
80555;PMS5003;69889;55.040;73.076;2023-08-01T08:05:49;11.00;10.75;7.00
80555;PMS5003;69889;55.040;73.076;2023-08-01T08:08:17;11.25;10.50;7.00
80555;PMS5003;69889;55.040;73.076;2023-08-01T08:10:43;9.25;9.00;6.00
80555;PMS5003;69889;55.040;73.076;2023-08-01T08:13:10;11.00;10.00;7.00
80555;PMS5003;69889;55.040;73.076;2023-08-01T08:15:55;9.75;9.00;6.00
80555;PMS5003;69889;55.040;73.076;2023-08-01T08:18:23;9.75;9.00;6.00
80555;PMS5003;69889;55.040;73.076;2023-08-01T08:20:50;9.00;9.00;6.00
80555;PMS5003;69889;55.040;73.076;2023-08-01T08:23:16;12.00;11.00;6.00
80555;PMS5003;69889;55.040;73.076;2023-08-01T08:25:43;9.75;9.00;6.00
80555;PMS5003;69889;55.040;73.076;2023-08-01T08:28:28;9.50;9.00;6.00
80555;PMS5003;69889;55.040;73.076;2023-08-01T08:30:55;10.00;9.00;6.00
80555;PMS5003;69889;55.040;73.076;2023-08-01T08:33:22;9.00;8.75;6.00
80555;PMS5003;69889;55.040;73.076;2023-08-01T08:35:48;11.75;11.00;7.00
80555;PMS5003;69889;55.040;73.076;2023-08-01T08:38:16;11.00;10.00;7.00
80555;PMS5003;69889;55.040;73.076;2023-08-01T08:40:55;9.00;9.00;6.00
80555;PMS5003;69889;55.040;73.076;2023-08-01T08:43:23;11.25;11.00;7.00
80555;PMS5003;69889;55.040;73.076;2023-08-01T08:45:50;11.00;10.00;7.00
80555;PMS5003;69889;55.040;73.076;2023-08-01T08:48:19;10.00;9.00;7.00
80555;PMS5003;69889;55.040;73.076;2023-08-01T08:50:46;10.50;10.00;7.00
80555;PMS5003;69889;55.040;73.076;2023-08-01T08:53:13;12.00;11.00;7.00
80555;PMS5003;69889;55.040;73.076;2023-08-01T08:55:40;10.00;9.00;6.00
80555;PMS5003;69889;55.040;73.076;2023-08-01T08:58:07;11.25;10.00;6.00
80555;PMS5003;69889;55.040;73.076;2023-08-01T09:00:34;9.50;8.50;6.00
80555;PMS5003;69889;55.040;73.076;2023-08-01T09:03:02;11.00;10.00;6.25
80555;PMS5003;69889;55.040;73.076;2023-08-01T09:05:30;11.00;10.00;7.00
80555;PMS5003;69889;55.040;73.076;2023-08-01T09:07:57;8.25;8.00;5.00
80555;PMS5003;69889;55.040;73.076;2023-08-01T09:10:27;10.00;9.00;7.00
80555;PMS5003;69889;55.040;73.076;2023-08-01T09:12:53;10.00;9.00;6.00
80555;PMS5003;69889;55.040;73.076;2023-08-01T09:15:20;10.00;9.00;6.00
80555;PMS5003;69889;55.040;73.076;2023-08-01T09:17:47;9.00;9.00;6.00
80555;PMS5003;69889;55.040;73.076;2023-08-01T09:20:15;8.00;7.50;5.00
80555;PMS5003;69889;55.040;73.076;2023-08-01T09:22:43;9.00;9.00;6.00
80555;PMS5003;69889;55.040;73.076;2023-08-01T09:25:10;8.00;8.00;5.00
80555;PMS5003;69889;55.040;73.076;2023-08-01T09:27:37;10.00;9.00;6.00
80555;PMS5003;69889;55.040;73.076;2023-08-01T09:30:10;9.00;8.00;6.00
80555;PMS5003;69889;55.040;73.076;2023-08-01T09:32:39;9.00;8.00;5.75
80555;PMS5003;69889;55.040;73.076;2023-08-01T09:35:06;7.25;7.00;5.00
80555;PMS5003;69889;55.040;73.076;2023-08-01T09:37:39;7.00;7.00;5.00
80555;PMS5003;69889;55.040;73.076;2023-08-01T09:40:06;8.00;8.00;6.00
80555;PMS5003;69889;55.040;73.076;2023-08-01T09:42:45;9.75;9.00;6.00
80555;PMS5003;69889;55.040;73.076;2023-08-01T09:47:39;9.00;9.00;6.00
80555;PMS5003;69889;55.040;73.076;2023-08-01T09:50:09;10.25;9.50;5.00
80555;PMS5003;69889;55.040;73.076;2023-08-01T09:52:36;8.50;7.75;5.00
80555;PMS5003;69889;55.040;73.076;2023-08-01T09:55:03;9.00;8.75;5.00
80555;PMS5003;69889;55.040;73.076;2023-08-01T09:57:30;10.00;9.25;6.00
80555;PMS5003;69889;55.040;73.076;2023-08-01T09:59:57;8.25;7.50;4.75
80555;PMS5003;69889;55.040;73.076;2023-08-01T10:02:25;8.00;7.00;5.00
80555;PMS5003;69889;55.040;73.076;2023-08-01T10:04:53;8.00;7.00;4.00
80555;PMS5003;69889;55.040;73.076;2023-08-01T10:07:23;8.25;8.00;5.00
80555;PMS5003;69889;55.040;73.076;2023-08-01T10:09:50;11.00;9.50;5.75
80555;PMS5003;69889;55.040;73.076;2023-08-01T10:12:17;10.00;9.00;6.00
80555;PMS5003;69889;55.040;73.076;2023-08-01T10:14:44;9.00;8.00;5.00
80555;PMS5003;69889;55.040;73.076;2023-08-01T10:17:11;10.00;9.00;6.00
80555;PMS5003;69889;55.040;73.076;2023-08-01T10:19:38;11.00;10.00;6.00
80555;PMS5003;69889;55.040;73.076;2023-08-01T10:22:06;9.00;9.00;6.50
80555;PMS5003;69889;55.040;73.076;2023-08-01T10:24:35;11.00;10.00;7.00
80555;PMS5003;69889;55.040;73.076;2023-08-01T10:27:13;9.00;9.00;6.00
80555;PMS5003;69889;55.040;73.076;2023-08-01T10:29:41;8.00;7.00;5.00
80555;PMS5003;69889;55.040;73.076;2023-08-01T10:32:07;8.00;8.00;5.00
80555;PMS5003;69889;55.040;73.076;2023-08-01T10:34:34;8.00;7.00;5.00
80555;PMS5003;69889;55.040;73.076;2023-08-01T10:37:01;17.75;16.50;11.00
80555;PMS5003;69889;55.040;73.076;2023-08-01T10:39:28;10.00;9.00;6.00
80555;PMS5003;69889;55.040;73.076;2023-08-01T10:41:58;10.00;9.00;6.00
80555;PMS5003;69889;55.040;73.076;2023-08-01T10:44:25;9.00;8.00;5.00
80555;PMS5003;69889;55.040;73.076;2023-08-01T10:46:53;8.00;8.00;5.00
80555;PMS5003;69889;55.040;73.076;2023-08-01T10:49:20;8.00;8.00;6.00
80555;PMS5003;69889;55.040;73.076;2023-08-01T10:51:50;8.50;8.00;5.25
80555;PMS5003;69889;55.040;73.076;2023-08-01T10:54:20;7.75;7.00;4.25
80555;PMS5003;69889;55.040;73.076;2023-08-01T10:56:49;8.00;7.75;5.00
80555;PMS5003;69889;55.040;73.076;2023-08-01T10:59:16;7.00;6.50;4.25
80555;PMS5003;69889;55.040;73.076;2023-08-01T11:01:50;8.25;8.00;5.00
80555;PMS5003;69889;55.040;73.076;2023-08-01T11:04:17;6.00;6.00;4.00
80555;PMS5003;69889;55.040;73.076;2023-08-01T11:06:47;6.25;6.00;5.00
80555;PMS5003;69889;55.040;73.076;2023-08-01T11:09:32;9.00;8.00;5.00
80555;PMS5003;69889;55.040;73.076;2023-08-01T11:11:59;11.25;10.00;6.00
80555;PMS5003;69889;55.040;73.076;2023-08-01T11:14:27;9.00;8.00;5.00
80555;PMS5003;69889;55.040;73.076;2023-08-01T11:16:54;8.00;7.75;5.00
80555;PMS5003;69889;55.040;73.076;2023-08-01T11:19:25;8.00;7.00;5.00
80555;PMS5003;69889;55.040;73.076;2023-08-01T11:21:52;8.00;8.00;5.00
80555;PMS5003;69889;55.040;73.076;2023-08-01T11:24:19;9.00;8.00;5.00
80555;PMS5003;69889;55.040;73.076;2023-08-01T11:26:47;11.75;11.00;6.00
80555;PMS5003;69889;55.040;73.076;2023-08-01T11:29:15;10.00;9.00;6.00
80555;PMS5003;69889;55.040;73.076;2023-08-01T11:31:51;9.00;8.00;6.00
80555;PMS5003;69889;55.040;73.076;2023-08-01T11:34:18;9.00;8.75;6.00
80555;PMS5003;69889;55.040;73.076;2023-08-01T11:36:45;11.00;10.00;6.75
80555;PMS5003;69889;55.040;73.076;2023-08-01T11:39:12;9.00;8.00;6.00
80555;PMS5003;69889;55.040;73.076;2023-08-01T11:41:38;11.00;10.00;6.00
80555;PMS5003;69889;55.040;73.076;2023-08-01T11:44:05;10.00;9.00;6.00
80555;PMS5003;69889;55.040;73.076;2023-08-01T11:46:32;11.00;11.00;7.00
80555;PMS5003;69889;55.040;73.076;2023-08-01T11:48:59;11.00;10.00;6.25
80555;PMS5003;69889;55.040;73.076;2023-08-01T11:51:27;11.00;10.00;7.00
80555;PMS5003;69889;55.040;73.076;2023-08-01T11:54:01;10.00;9.00;6.00
80555;PMS5003;69889;55.040;73.076;2023-08-01T11:56:28;10.00;9.00;6.00
80555;PMS5003;69889;55.040;73.076;2023-08-01T11:58:55;10.25;9.50;6.00
80555;PMS5003;69889;55.040;73.076;2023-08-01T12:01:22;9.00;9.00;6.00
80555;PMS5003;69889;55.040;73.076;2023-08-01T12:03:50;11.00;10.00;6.00
80555;PMS5003;69889;55.040;73.076;2023-08-01T12:06:30;8.75;8.50;6.00
80555;PMS5003;69889;55.040;73.076;2023-08-01T12:09:07;9.00;9.00;6.00
80555;PMS5003;69889;55.040;73.076;2023-08-01T12:11:34;9.00;8.25;5.00
80555;PMS5003;69889;55.040;73.076;2023-08-01T12:16:27;9.75;9.00;7.00
80555;PMS5003;69889;55.040;73.076;2023-08-01T12:18:54;10.25;9.25;6.00
80555;PMS5003;69889;55.040;73.076;2023-08-01T12:21:20;8.00;8.00;6.00
80555;PMS5003;69889;55.040;73.076;2023-08-01T12:23:47;10.00;9.00;6.00
80555;PMS5003;69889;55.040;73.076;2023-08-01T12:26:14;10.00;9.00;6.00
80555;PMS5003;69889;55.040;73.076;2023-08-01T12:28:40;8.75;7.75;5.00
80555;PMS5003;69889;55.040;73.076;2023-08-01T12:31:07;9.00;9.00;6.00
80555;PMS5003;69889;55.040;73.076;2023-08-01T12:33:33;11.00;10.00;7.00
80555;PMS5003;69889;55.040;73.076;2023-08-01T12:36:00;12.00;11.00;6.00
80555;PMS5003;69889;55.040;73.076;2023-08-01T12:38:28;11.00;10.00;6.00
80555;PMS5003;69889;55.040;73.076;2023-08-01T12:40:55;9.50;9.00;5.50
80555;PMS5003;69889;55.040;73.076;2023-08-01T12:43:21;10.00;9.25;6.00
80555;PMS5003;69889;55.040;73.076;2023-08-01T12:45:48;11.00;10.00;7.00
80555;PMS5003;69889;55.040;73.076;2023-08-01T12:48:15;10.00;9.00;5.75
80555;PMS5003;69889;55.040;73.076;2023-08-01T12:50:44;10.00;10.00;6.50
80555;PMS5003;69889;55.040;73.076;2023-08-01T12:53:30;10.00;9.00;6.00
80555;PMS5003;69889;55.040;73.076;2023-08-01T12:56:02;9.00;8.00;6.00
80555;PMS5003;69889;55.040;73.076;2023-08-01T12:58:29;10.00;9.00;6.00
80555;PMS5003;69889;55.040;73.076;2023-08-01T13:00:55;9.50;9.00;6.00
80555;PMS5003;69889;55.040;73.076;2023-08-01T13:03:22;12.00;11.00;7.00
80555;PMS5003;69889;55.040;73.076;2023-08-01T13:05:48;10.00;9.00;5.00
80555;PMS5003;69889;55.040;73.076;2023-08-01T13:08:15;9.00;8.50;6.00
80555;PMS5003;69889;55.040;73.076;2023-08-01T13:10:42;10.00;9.00;6.00
80555;PMS5003;69889;55.040;73.076;2023-08-01T13:13:11;9.75;9.00;6.00
80555;PMS5003;69889;55.040;73.076;2023-08-01T13:15:37;8.25;7.75;6.00
80555;PMS5003;69889;55.040;73.076;2023-08-01T13:18:04;11.00;9.75;7.00
80555;PMS5003;69889;55.040;73.076;2023-08-01T13:20:30;10.00;9.25;6.00
80555;PMS5003;69889;55.040;73.076;2023-08-01T13:22:57;8.00;8.00;6.00
80555;PMS5003;69889;55.040;73.076;2023-08-01T13:25:23;12.00;10.00;6.00
80555;PMS5003;69889;55.040;73.076;2023-08-01T13:27:50;9.00;9.00;6.00
80555;PMS5003;69889;55.040;73.076;2023-08-01T13:30:17;10.75;9.50;6.00
80555;PMS5003;69889;55.040;73.076;2023-08-01T13:32:46;9.00;8.00;5.00
80555;PMS5003;69889;55.040;73.076;2023-08-01T13:35:13;10.75;10.00;7.00
80555;PMS5003;69889;55.040;73.076;2023-08-01T13:37:40;8.25;7.75;5.00
80555;PMS5003;69889;55.040;73.076;2023-08-01T13:40:06;9.50;8.50;6.00
80555;PMS5003;69889;55.040;73.076;2023-08-01T13:42:34;9.00;8.00;6.00
80555;PMS5003;69889;55.040;73.076;2023-08-01T13:45:01;10.00;9.00;6.00
80555;PMS5003;69889;55.040;73.076;2023-08-01T13:47:29;8.00;8.00;6.00
80555;PMS5003;69889;55.040;73.076;2023-08-01T13:49:55;9.00;8.00;5.00
80555;PMS5003;69889;55.040;73.076;2023-08-01T13:52:22;8.75;8.00;6.00
80555;PMS5003;69889;55.040;73.076;2023-08-01T13:54:49;9.00;8.00;5.00
80555;PMS5003;69889;55.040;73.076;2023-08-01T13:57:15;10.00;9.00;6.00
80555;PMS5003;69889;55.040;73.076;2023-08-01T13:59:42;9.00;8.00;5.50